Azusa, California
Current Conditions -  °F | °C
As of 3:48 PM on Friday 21 Nov 2014 (Local Time) from KEMT Reporting Station
Clear Clear  
Wind Chill: 68°   Ceiling: Unl
Heat Index: 68°   Visibility: 10mi
Dew Point: 46°   Wind: 8mph
Humidity: 46%   Direction: 210°SSW
Pressure: 29.96"   Gusts: NA
Location:  34.13°N, 117.9°W
Report Text: KEMT 212348Z 21007KT 10SM CLR 20/08 A2996
Loading
Personal Weather Stations






























Interactive Weather Map New forecast layout! Learn more

10-Day Weather Forecast

Advertisements
Track Severe Weather on mobile